createdAt,value
2019-05-21T00:01:34.686Z,12.61
2019-05-21T00:04:05.062Z,12.61
2019-05-21T00:06:35.297Z,12.61
2019-05-21T00:09:06.473Z,12.59
2019-05-21T00:11:36.813Z,12.56
2019-05-21T00:14:06.991Z,12.59
2019-05-21T00:16:37.383Z,12.56
2019-05-21T00:19:07.896Z,12.57
2019-05-21T00:21:38.249Z,12.56
2019-05-21T00:24:08.454Z,12.52
2019-05-21T00:26:38.664Z,12.53
2019-05-21T00:29:44.801Z,12.49
2019-05-21T00:32:50.868Z,12.51
2019-05-21T00:35:57.109Z,12.49
2019-05-21T00:39:04.935Z,12.50
2019-05-21T00:42:01.163Z,12.46
2019-05-21T00:44:38.432Z,12.44
2019-05-21T00:47:15.362Z,12.41
2019-05-21T00:49:45.548Z,12.38
2019-05-21T00:52:15.699Z,12.40
2019-05-21T00:54:46.006Z,12.34
2019-05-21T00:57:16.395Z,12.39
2019-05-21T00:59:48.024Z,12.41
2019-05-21T01:02:20.940Z,12.40
2019-05-21T01:05:00.423Z,12.37
2019-05-21T01:07:23.487Z,12.33
2019-05-21T01:09:56.595Z,12.30
2019-05-21T01:12:27.162Z,12.30
2019-05-21T01:14:57.366Z,12.24
2019-05-21T01:17:27.585Z,12.20
2019-05-21T01:19:57.720Z,12.22
2019-05-21T01:22:27.869Z,12.21
2019-05-21T01:24:58.016Z,12.26
2019-05-21T01:27:28.131Z,12.25
2019-05-21T01:29:58.449Z,12.24
2019-05-21T01:32:28.667Z,12.19
2019-05-21T01:35:16.028Z,12.13
2019-05-21T01:37:33.600Z,12.18
2019-05-21T01:40:03.874Z,12.19
2019-05-21T01:42:34.534Z,12.19
2019-05-21T01:45:05.354Z,12.16
2019-05-21T01:47:35.605Z,12.18
2019-05-21T01:50:05.951Z,12.14
2019-05-21T01:52:36.233Z,12.12
2019-05-21T01:55:06.495Z,12.04
2019-05-21T01:57:36.655Z,12.05
2019-05-21T02:00:07.172Z,12.01
2019-05-21T02:02:39.745Z,12.02
2019-05-21T02:05:10.082Z,12.08
2019-05-21T02:07:40.966Z,12.05
2019-05-21T02:10:11.420Z,12.02
2019-05-21T02:12:41.545Z,12.04
2019-05-21T02:15:12.320Z,12.04
2019-05-21T02:17:48.033Z,12.02
2019-05-21T02:20:20.379Z,12.02
2019-05-21T02:22:51.398Z,12.08
2019-05-21T02:25:22.040Z,11.98
2019-05-21T02:27:52.253Z,12.00
2019-05-21T02:30:22.810Z,11.99
2019-05-21T02:32:53.009Z,11.99
2019-05-21T02:35:23.112Z,11.99
2019-05-21T02:37:55.961Z,11.98
2019-05-21T02:40:27.228Z,11.98
2019-05-21T02:42:57.504Z,11.94
2019-05-21T02:45:27.841Z,11.92
2019-05-21T02:47:58.202Z,11.92
2019-05-21T02:50:28.375Z,11.92
2019-05-21T02:52:58.917Z,11.92
2019-05-21T02:55:29.319Z,11.91
2019-05-21T02:57:59.989Z,11.88
2019-05-21T03:00:48.061Z,11.89
2019-05-21T03:03:20.677Z,11.89
2019-05-21T03:05:50.781Z,11.85
2019-05-21T03:08:20.936Z,11.84
2019-05-21T03:10:51.099Z,11.80
2019-05-21T03:13:21.600Z,11.78
2019-05-21T03:15:52.170Z,11.75
2019-05-21T03:18:22.673Z,11.79
2019-05-21T03:20:52.898Z,11.76
2019-05-21T03:23:26.246Z,11.78
2019-05-21T03:25:56.339Z,11.77
2019-05-21T03:28:26.564Z,11.74
2019-05-21T03:30:56.729Z,11.66
2019-05-21T03:33:27.932Z,11.67
2019-05-21T03:35:58.305Z,11.66
2019-05-21T03:38:28.868Z,11.56
2019-05-21T03:41:00.942Z,11.61
2019-05-21T03:43:31.585Z,11.55
2019-05-21T03:46:01.723Z,11.59
2019-05-21T03:48:32.179Z,11.56
2019-05-21T03:51:02.295Z,11.58
2019-05-21T03:53:32.573Z,11.55
2019-05-21T03:56:02.806Z,11.59
2019-05-21T03:58:33.000Z,11.55
2019-05-21T04:01:03.186Z,11.56
2019-05-21T04:03:33.430Z,11.56
2019-05-21T04:06:04.175Z,11.54
2019-05-21T04:08:34.494Z,11.53
2019-05-21T04:11:05.926Z,11.51
2019-05-21T04:13:37.599Z,11.50
2019-05-21T04:16:25.695Z,11.48
2019-05-21T04:19:05.978Z,11.49
2019-05-21T04:21:36.461Z,11.52
2019-05-21T04:24:09.057Z,11.54
2019-05-21T04:26:39.889Z,11.57
2019-05-21T04:29:10.049Z,11.58
2019-05-21T04:31:40.435Z,11.61
2019-05-21T04:34:10.580Z,11.61
2019-05-21T04:36:40.923Z,11.60
2019-05-21T04:39:11.234Z,11.60
2019-05-21T04:41:44.024Z,11.61
2019-05-21T04:44:14.428Z,11.59
2019-05-21T04:46:44.772Z,11.56
2019-05-21T04:49:15.008Z,11.54
2019-05-21T04:51:45.154Z,11.57
2019-05-21T04:54:16.844Z,11.60
2019-05-21T04:56:47.194Z,11.57
2019-05-21T04:59:17.523Z,11.61
2019-05-21T05:01:47.696Z,11.59
2019-05-21T05:04:21.962Z,11.58
2019-05-21T05:06:49.857Z,11.62
2019-05-21T05:09:20.015Z,11.53
2019-05-21T05:11:50.337Z,11.51
2019-05-21T05:14:20.648Z,11.55
2019-05-21T05:16:51.906Z,11.56
2019-05-21T05:19:22.071Z,11.56
2019-05-21T05:21:52.215Z,11.56
2019-05-21T05:24:22.566Z,11.62
2019-05-21T05:26:54.367Z,11.65
2019-05-21T05:29:24.932Z,11.64
2019-05-21T05:31:55.072Z,11.60
2019-05-21T05:34:25.343Z,11.61
2019-05-21T05:36:55.563Z,11.65
2019-05-21T05:39:25.676Z,11.66
2019-05-21T05:41:55.834Z,11.68
2019-05-21T05:44:30.912Z,11.67
2019-05-21T05:47:01.199Z,11.66
2019-05-21T05:49:38.670Z,11.70
2019-05-21T05:52:08.912Z,11.69
2019-05-21T05:54:39.411Z,11.68
2019-05-21T05:57:09.739Z,11.67
2019-05-21T05:59:40.016Z,11.68
2019-05-21T06:02:10.181Z,11.68
2019-05-21T06:04:40.363Z,11.65
2019-05-21T06:07:10.987Z,11.63
2019-05-21T06:09:41.288Z,11.67
2019-05-21T06:12:11.607Z,11.69
2019-05-21T06:14:43.015Z,11.67
2019-05-21T06:17:13.173Z,11.69
2019-05-21T06:19:43.357Z,11.63
2019-05-21T06:22:13.746Z,11.69
2019-05-21T06:24:43.932Z,11.62
2019-05-21T06:27:14.224Z,11.62
2019-05-21T06:29:44.864Z,11.57
2019-05-21T06:32:15.073Z,11.57
2019-05-21T06:34:48.621Z,11.63
2019-05-21T06:37:17.474Z,11.62
2019-05-21T06:39:48.011Z,11.61
2019-05-21T06:42:18.373Z,11.63
2019-05-21T06:44:51.017Z,11.65
2019-05-21T06:47:21.334Z,11.64
2019-05-21T06:49:51.567Z,11.63
2019-05-21T06:52:21.858Z,11.65
2019-05-21T06:54:51.925Z,11.65
2019-05-21T06:57:22.196Z,11.61
2019-05-21T06:59:52.322Z,11.63
2019-05-21T07:02:22.663Z,11.65
2019-05-21T07:04:53.505Z,11.59
2019-05-21T07:07:24.781Z,11.57
2019-05-21T07:09:55.025Z,11.58
2019-05-21T07:12:25.258Z,11.59
2019-05-21T07:14:55.597Z,11.57
2019-05-21T07:17:25.843Z,11.52
2019-05-21T07:19:56.016Z,11.59
2019-05-21T07:22:26.324Z,11.62
2019-05-21T07:24:57.029Z,11.64
2019-05-21T07:27:27.326Z,11.60
2019-05-21T07:29:57.565Z,11.64
2019-05-21T07:32:27.740Z,11.64
2019-05-21T07:34:57.974Z,11.63
2019-05-21T07:37:28.261Z,11.65
2019-05-21T07:39:58.393Z,11.66
2019-05-21T07:42:28.827Z,11.66
2019-05-21T07:44:59.078Z,11.65
2019-05-21T07:47:29.278Z,11.59
2019-05-21T07:49:59.379Z,11.68
2019-05-21T07:52:29.636Z,11.66
2019-05-21T07:55:00.228Z,11.62
2019-05-21T07:57:30.446Z,11.65
2019-05-21T08:00:00.796Z,11.63
2019-05-21T08:02:31.218Z,11.60
2019-05-21T08:05:02.318Z,11.64
2019-05-21T08:07:33.415Z,11.64
2019-05-21T08:10:03.827Z,11.65
2019-05-21T08:12:39.393Z,11.66
2019-05-21T08:15:09.686Z,11.68
2019-05-21T08:17:40.035Z,11.65
2019-05-21T08:20:11.253Z,11.60
2019-05-21T08:22:41.493Z,11.63
2019-05-21T08:25:14.467Z,11.67
2019-05-21T08:27:43.761Z,11.73
2019-05-21T08:30:14.847Z,11.73
2019-05-21T08:32:45.205Z,11.82
2019-05-21T08:35:15.541Z,11.86
2019-05-21T08:37:45.623Z,11.89
2019-05-21T08:40:16.532Z,11.97
2019-05-21T08:42:46.776Z,12.08
2019-05-21T08:45:17.385Z,12.02
2019-05-21T08:47:47.649Z,12.07
2019-05-21T08:50:17.841Z,12.11
2019-05-21T08:52:48.504Z,12.10
2019-05-21T08:55:18.781Z,12.20
2019-05-21T08:58:05.769Z,12.19
2019-05-21T09:00:22.222Z,12.17
2019-05-21T09:02:52.751Z,12.28
2019-05-21T09:05:23.497Z,12.28
2019-05-21T09:07:55.026Z,12.33
2019-05-21T09:10:25.258Z,12.35
2019-05-21T09:12:55.504Z,12.32
2019-05-21T09:15:25.843Z,12.36
2019-05-21T09:17:55.983Z,12.33
2019-05-21T09:20:26.498Z,12.38
2019-05-21T09:22:56.892Z,12.37
2019-05-21T09:25:28.035Z,12.26
2019-05-21T09:27:58.488Z,12.25
2019-05-21T09:30:28.865Z,12.27
2019-05-21T09:32:59.391Z,12.31
2019-05-21T09:35:31.096Z,12.18
2019-05-21T09:38:01.281Z,12.15
2019-05-21T09:40:32.250Z,12.19
2019-05-21T09:43:02.562Z,12.25
2019-05-21T09:45:32.728Z,12.23
2019-05-21T09:48:02.940Z,12.26
2019-05-21T09:50:34.764Z,12.29
2019-05-21T09:53:05.127Z,12.30
2019-05-21T09:55:35.427Z,12.37
2019-05-21T09:58:34.034Z,12.44
2019-05-21T10:01:25.691Z,12.39
2019-05-21T10:03:59.311Z,12.45
2019-05-21T10:06:29.946Z,12.45
2019-05-21T10:09:00.077Z,12.61
2019-05-21T10:11:30.269Z,12.66
2019-05-21T10:14:00.591Z,12.67
2019-05-21T10:16:30.836Z,12.59
2019-05-21T10:19:01.068Z,12.48
2019-05-21T10:21:31.595Z,12.54
2019-05-21T10:24:02.037Z,12.60
2019-05-21T10:26:32.629Z,12.54
2019-05-21T10:29:03.186Z,12.53
2019-05-21T10:31:33.598Z,12.54
2019-05-21T10:34:04.100Z,12.51
2019-05-21T10:36:34.355Z,12.45
2019-05-21T10:39:06.206Z,12.43
2019-05-21T10:41:36.431Z,12.47
2019-05-21T10:44:07.956Z,12.45
2019-05-21T10:46:38.713Z,12.44
2019-05-21T10:49:08.871Z,12.49
2019-05-21T10:51:41.182Z,12.56
2019-05-21T10:54:11.442Z,12.58
2019-05-21T10:56:47.913Z,12.65
2019-05-21T10:59:14.747Z,12.68
2019-05-21T11:01:55.025Z,12.69
2019-05-21T11:04:32.625Z,12.69
2019-05-21T11:07:02.965Z,12.73
2019-05-21T11:09:33.803Z,12.80
2019-05-21T11:12:06.256Z,12.85
2019-05-21T11:14:36.444Z,12.90
2019-05-21T11:17:09.683Z,12.93
2019-05-21T11:19:39.819Z,12.99
2019-05-21T11:22:10.247Z,13.07
2019-05-21T11:24:40.427Z,13.10
2019-05-21T11:27:11.289Z,13.01
2019-05-21T11:29:41.600Z,13.01
2019-05-21T11:32:12.222Z,12.92
2019-05-21T11:34:42.804Z,12.91
2019-05-21T11:37:13.193Z,12.88
2019-05-21T11:39:43.900Z,12.89
2019-05-21T11:42:14.464Z,13.05
2019-05-21T11:44:44.799Z,13.03
2019-05-21T11:47:15.056Z,13.14
2019-05-21T11:49:45.975Z,13.15
2019-05-21T11:52:16.341Z,13.23
2019-05-21T11:54:47.135Z,13.24
2019-05-21T11:57:17.682Z,13.30
2019-05-21T11:59:48.479Z,13.35
2019-05-21T12:02:18.945Z,13.44
2019-05-21T12:04:49.771Z,13.43
2019-05-21T12:07:21.398Z,13.38
2019-05-21T12:09:52.099Z,13.38
2019-05-21T12:12:22.706Z,13.32
2019-05-21T12:14:53.194Z,13.36
2019-05-21T12:17:23.872Z,13.36
2019-05-21T12:19:54.212Z,13.30
2019-05-21T12:22:24.913Z,13.33
2019-05-21T12:24:55.529Z,13.35
2019-05-21T12:27:25.903Z,13.32
2019-05-21T12:29:56.593Z,13.33
2019-05-21T12:32:27.548Z,13.35
2019-05-21T12:34:59.356Z,13.32
2019-05-21T12:37:30.199Z,13.20
2019-05-21T12:40:00.740Z,13.10
2019-05-21T12:42:31.152Z,13.08
2019-05-21T12:45:03.657Z,13.04
2019-05-21T12:47:34.152Z,13.14
2019-05-21T12:50:05.259Z,13.26
2019-05-21T12:52:36.254Z,13.41
2019-05-21T12:55:06.918Z,13.40
2019-05-21T12:57:38.236Z,13.56
2019-05-21T13:00:12.712Z,13.51
2019-05-21T13:02:43.342Z,13.68
2019-05-21T13:05:14.259Z,13.67
2019-05-21T13:07:45.445Z,13.74
2019-05-21T13:10:17.574Z,13.70
2019-05-21T13:12:51.500Z,13.70
2019-05-21T13:15:22.301Z,13.76
2019-05-21T13:17:52.978Z,13.67
2019-05-21T13:20:23.612Z,13.75
2019-05-21T13:22:54.708Z,13.85
2019-05-21T13:25:25.055Z,13.90
2019-05-21T13:27:57.755Z,13.88
2019-05-21T13:30:30.769Z,13.81
2019-05-21T13:33:01.199Z,13.83
2019-05-21T13:35:31.567Z,13.78
2019-05-21T13:38:02.267Z,13.77
2019-05-21T13:40:33.555Z,13.67
2019-05-21T13:43:04.091Z,13.59
2019-05-21T13:45:34.587Z,13.67
2019-05-21T13:48:05.312Z,13.65
2019-05-21T13:50:35.844Z,13.64
2019-05-21T13:53:06.670Z,13.56
2019-05-21T13:55:37.113Z,13.60
2019-05-21T13:58:07.883Z,13.64
2019-05-21T14:00:42.257Z,13.57
2019-05-21T14:03:14.930Z,13.57
2019-05-21T14:05:45.754Z,13.67
2019-05-21T14:08:16.296Z,13.65
2019-05-21T14:10:47.118Z,13.66
2019-05-21T14:13:17.352Z,13.91
2019-05-21T14:15:49.041Z,13.88
2019-05-21T14:18:19.379Z,13.98
2019-05-21T14:20:49.855Z,13.95
2019-05-21T14:23:20.669Z,14.01
2019-05-21T14:25:50.959Z,13.96
2019-05-21T14:28:21.357Z,13.90
2019-05-21T14:30:51.901Z,13.94
2019-05-21T14:33:22.613Z,13.94
2019-05-21T14:35:52.806Z,13.68
2019-05-21T14:38:23.258Z,13.60
2019-05-21T14:40:53.871Z,13.60
2019-05-21T14:43:24.260Z,13.61
2019-05-21T14:45:57.529Z,13.67
2019-05-21T14:48:27.860Z,13.64
2019-05-21T14:50:58.376Z,13.50
2019-05-21T14:53:29.086Z,13.52
2019-05-21T14:55:59.366Z,13.60
2019-05-21T14:58:29.926Z,13.50
2019-05-21T15:01:00.442Z,13.57
2019-05-21T15:03:32.780Z,13.61
2019-05-21T15:06:03.073Z,13.53
2019-05-21T15:08:33.381Z,13.48
2019-05-21T15:11:03.918Z,13.55
2019-05-21T15:13:34.224Z,13.60
2019-05-21T15:16:04.797Z,13.51
2019-05-21T15:27:54.565Z,13.71
2019-05-21T15:30:25.893Z,13.62
2019-05-21T15:32:56.252Z,13.74
2019-05-21T15:35:26.500Z,13.75
2019-05-21T15:37:56.629Z,13.78
2019-05-21T15:40:26.863Z,13.75
2019-05-21T15:42:57.038Z,13.77
2019-05-21T15:45:27.642Z,13.83
2019-05-21T15:47:58.128Z,13.66
2019-05-21T15:50:31.464Z,13.74
2019-05-21T15:53:01.665Z,13.61
2019-05-21T15:55:31.995Z,13.61
2019-05-21T15:58:02.208Z,13.50
2019-05-21T16:00:33.761Z,13.57
2019-05-21T16:03:04.402Z,13.53
2019-05-21T16:05:34.751Z,13.51
2019-05-21T16:08:05.710Z,13.46
2019-05-21T16:10:37.993Z,13.41
2019-05-21T16:13:08.220Z,13.32
2019-05-21T16:15:38.826Z,13.34
2019-05-21T16:18:09.264Z,13.22
2019-05-21T16:20:42.470Z,13.23
2019-05-21T16:23:11.864Z,13.21
2019-05-21T16:25:42.312Z,13.14
2019-05-21T16:28:13.138Z,13.16
2019-05-21T16:30:43.437Z,13.24
2019-05-21T16:33:14.063Z,13.24
2019-05-21T16:35:44.675Z,13.27
2019-05-21T16:38:16.716Z,13.23
2019-05-21T16:40:47.098Z,13.19
2019-05-21T16:43:17.425Z,13.11
2019-05-21T16:45:50.270Z,13.02
2019-05-21T16:48:22.458Z,12.93
2019-05-21T16:50:52.732Z,12.90
2019-05-21T16:53:23.054Z,12.84
2019-05-21T16:55:56.381Z,12.87
2019-05-21T16:58:27.051Z,12.96
2019-05-21T17:00:57.552Z,12.95
2019-05-21T17:03:27.882Z,12.88
2019-05-21T17:05:58.838Z,12.83
2019-05-21T17:08:29.136Z,12.76
2019-05-21T17:11:00.137Z,12.74
2019-05-21T17:13:30.701Z,12.75
2019-05-21T17:16:03.867Z,12.75
2019-05-21T17:18:34.454Z,12.75
2019-05-21T17:21:04.654Z,12.73
2019-05-21T17:23:35.428Z,12.71
2019-05-21T17:26:08.997Z,12.64
2019-05-21T17:28:40.413Z,12.67
2019-05-21T17:31:12.387Z,12.64
2019-05-21T17:33:42.864Z,12.67
2019-05-21T17:36:13.353Z,12.66
2019-05-21T17:38:45.215Z,12.62
2019-05-21T17:41:15.562Z,12.59
2019-05-21T17:43:46.255Z,12.58
2019-05-21T17:46:16.653Z,12.55
2019-05-21T17:48:46.949Z,12.50
2019-05-21T17:51:17.657Z,12.50
2019-05-21T17:53:48.323Z,12.52
2019-05-21T17:56:18.806Z,12.50
2019-05-21T17:58:49.279Z,12.51
2019-05-21T18:01:20.545Z,12.52
2019-05-21T18:03:50.951Z,12.51
2019-05-21T18:06:21.352Z,12.50
2019-05-21T18:08:52.112Z,12.48
2019-05-21T18:11:23.978Z,12.42
2019-05-21T18:13:55.243Z,12.39
2019-05-21T18:16:26.479Z,12.41
2019-05-21T18:18:57.522Z,12.37
2019-05-21T18:21:28.667Z,12.31
2019-05-21T18:23:59.501Z,12.36
2019-05-21T18:26:30.295Z,12.35
2019-05-21T18:29:00.768Z,12.33
2019-05-21T18:31:31.549Z,12.27
2019-05-21T18:34:03.845Z,12.26
2019-05-21T18:36:34.637Z,12.27
2019-05-21T18:39:08.150Z,12.27
2019-05-21T18:41:39.062Z,12.19
2019-05-21T18:44:09.632Z,12.19
2019-05-21T18:46:40.577Z,12.19
2019-05-21T18:49:11.161Z,12.22
2019-05-21T18:51:41.813Z,12.17
2019-05-21T18:54:12.571Z,12.17
2019-05-21T18:56:43.560Z,12.16
2019-05-21T18:59:14.507Z,12.14
2019-05-21T19:01:45.683Z,12.08
2019-05-21T19:04:16.149Z,12.08
2019-05-21T19:06:47.572Z,12.06
2019-05-21T19:09:20.372Z,12.01
2019-05-21T19:11:51.143Z,12.01
2019-05-21T19:14:21.923Z,12.00
2019-05-21T19:16:52.595Z,11.97
2019-05-21T19:19:23.175Z,11.97
2019-05-21T19:21:53.746Z,11.94
2019-05-21T19:24:24.468Z,11.89
2019-05-21T19:26:54.952Z,11.90
2019-05-21T19:29:25.837Z,11.88
2019-05-21T19:31:56.251Z,11.88
2019-05-21T19:34:27.245Z,11.89
2019-05-21T19:37:01.276Z,11.88
2019-05-21T19:39:32.098Z,11.86
2019-05-21T19:42:02.653Z,11.83
2019-05-21T19:44:33.077Z,11.81
2019-05-21T19:47:05.048Z,11.82
2019-05-21T19:49:35.442Z,11.81
2019-05-21T19:52:06.323Z,11.81
2019-05-21T19:54:36.797Z,11.81
2019-05-21T19:57:07.574Z,11.76
2019-05-21T19:59:39.972Z,11.77
2019-05-21T20:02:12.264Z,11.73
2019-05-21T20:04:43.033Z,11.72
2019-05-21T20:07:16.897Z,11.72
2019-05-21T20:09:49.322Z,11.76
2019-05-21T20:12:20.359Z,11.70
2019-05-21T20:14:50.747Z,11.66
2019-05-21T20:17:21.703Z,11.68
2019-05-21T20:19:53.191Z,11.68
2019-05-21T20:22:26.338Z,11.65
2019-05-21T20:24:58.529Z,11.64
2019-05-21T20:27:30.378Z,11.65
2019-05-21T20:30:12.145Z,11.67
2019-05-21T20:32:36.187Z,11.69
2019-05-21T20:35:08.517Z,11.66
2019-05-21T20:37:40.540Z,11.60
2019-05-21T20:40:13.650Z,11.62
2019-05-21T20:42:44.734Z,11.58
2019-05-21T20:45:16.758Z,11.56
2019-05-21T20:47:47.161Z,11.58
2019-05-21T20:50:19.041Z,11.61
2019-05-21T20:52:51.063Z,11.59
2019-05-21T20:55:22.729Z,11.53
2019-05-21T20:57:53.148Z,11.56
2019-05-21T21:00:29.864Z,11.55
2019-05-21T21:03:01.170Z,11.52
2019-05-21T21:05:32.006Z,11.54
2019-05-21T21:08:02.609Z,11.55
2019-05-21T21:10:33.493Z,11.51
2019-05-21T21:13:04.985Z,11.52
2019-05-21T21:15:35.791Z,11.52
2019-05-21T21:18:06.792Z,11.54
2019-05-21T21:20:38.867Z,11.52
2019-05-21T21:23:09.130Z,11.51
2019-05-21T21:25:39.395Z,11.53
2019-05-21T21:28:10.637Z,11.52
2019-05-21T21:30:40.962Z,11.49
2019-05-21T21:33:12.587Z,11.52
2019-05-21T21:35:43.507Z,11.52
2019-05-21T21:38:17.348Z,11.54
2019-05-21T21:40:49.068Z,11.54
2019-05-21T21:43:21.057Z,11.55
2019-05-21T21:45:51.740Z,11.54
2019-05-21T21:48:22.004Z,11.53
2019-05-21T21:50:53.016Z,11.52
2019-05-21T21:53:23.397Z,11.54
2019-05-21T21:55:53.674Z,11.51
2019-05-21T21:58:23.889Z,11.52
2019-05-21T22:01:44.410Z,11.52
2019-05-21T22:04:16.507Z,11.54
2019-05-21T22:06:48.812Z,11.53
2019-05-21T22:09:33.630Z,11.51
2019-05-21T22:12:12.720Z,11.54
2019-05-21T22:14:50.941Z,11.56
2019-05-21T22:17:17.822Z,11.57
2019-05-21T22:19:48.336Z,11.57
2019-05-21T22:22:18.580Z,11.54
2019-05-21T22:24:49.418Z,11.55
2019-05-21T22:27:19.698Z,11.55
2019-05-21T22:29:49.907Z,11.51
2019-05-21T22:32:20.193Z,11.54
2019-05-21T22:34:50.352Z,11.52
2019-05-21T22:37:23.663Z,11.53
2019-05-21T22:39:54.343Z,11.55
2019-05-21T22:42:24.877Z,11.52
2019-05-21T22:45:07.235Z,11.50
2019-05-21T22:47:28.929Z,11.44
2019-05-21T22:49:59.118Z,11.44
2019-05-21T22:52:29.363Z,11.40
2019-05-21T22:54:59.598Z,11.39
2019-05-21T22:57:29.935Z,11.39
2019-05-21T23:00:00.207Z,11.39
2019-05-21T23:02:33.343Z,11.39
2019-05-21T23:05:03.814Z,11.41
2019-05-21T23:07:34.527Z,11.42
2019-05-21T23:10:06.305Z,11.42
2019-05-21T23:12:37.032Z,11.41
2019-05-21T23:15:23.228Z,11.39
2019-05-21T23:17:41.432Z,11.37
2019-05-21T23:20:14.141Z,11.37
2019-05-21T23:22:47.986Z,11.39
2019-05-21T23:25:19.252Z,11.41
2019-05-21T23:27:49.798Z,11.45
2019-05-21T23:30:20.464Z,11.44
2019-05-21T23:32:51.427Z,11.45
2019-05-21T23:35:22.537Z,11.47
2019-05-21T23:37:53.186Z,11.48
2019-05-21T23:40:24.511Z,11.49
2019-05-21T23:42:55.133Z,11.49
2019-05-21T23:45:25.610Z,11.50
2019-05-21T23:47:56.321Z,11.52
2019-05-21T23:50:28.212Z,11.50
2019-05-21T23:52:59.383Z,11.52
2019-05-21T23:55:29.840Z,11.52
2019-05-21T23:58:00.023Z,11.52
